Terminal Aerodrome Forecast
Issued by NWS

Home | Current Version | Previous Version | Text Only | Print | Product List | Glossary On
Versions: 1 2 3 4 5 6 7 8 9 10 11 12 13 14 15 16 17 18
000
FTUS43 KDTX 050148 AAA
TAFYIP
TAF AMD
KYIP 050148Z 0502/0524 13005KT 1SM -SN BR OVC004
     FM050400 22006KT 5SM BR OVC008
     FM050700 24008KT P6SM OVC014
     FM051400 24009KT P6SM OVC024=

USA.gov is the U.S. government's official web portal to all federal, state and local government web resources and services.